sensor_id;sensor_type;location;lat;lon;timestamp;P1;durP1;ratioP1;P2;durP2;ratioP2
11618;SDS011;5865;48.776;9.280;2022-07-17T00:02:01;3.33;;;2.53;;
11618;SDS011;5865;48.776;9.280;2022-07-17T00:04:29;2.90;;;2.50;;
11618;SDS011;5865;48.776;9.280;2022-07-17T00:06:56;2.80;;;2.60;;
11618;SDS011;5865;48.776;9.280;2022-07-17T00:09:23;2.80;;;2.50;;
11618;SDS011;5865;48.776;9.280;2022-07-17T00:11:50;3.10;;;2.57;;
11618;SDS011;5865;48.776;9.280;2022-07-17T00:14:17;2.93;;;2.33;;
11618;SDS011;5865;48.776;9.280;2022-07-17T00:16:44;2.50;;;2.30;;
11618;SDS011;5865;48.776;9.280;2022-07-17T00:19:11;3.47;;;2.60;;
11618;SDS011;5865;48.776;9.280;2022-07-17T00:21:40;2.97;;;2.50;;
11618;SDS011;5865;48.776;9.280;2022-07-17T00:24:07;2.53;;;2.33;;
11618;SDS011;5865;48.776;9.280;2022-07-17T00:26:35;2.53;;;2.33;;
11618;SDS011;5865;48.776;9.280;2022-07-17T00:29:02;3.37;;;2.30;;
11618;SDS011;5865;48.776;9.280;2022-07-17T00:31:30;3.70;;;2.60;;
11618;SDS011;5865;48.776;9.280;2022-07-17T00:33:57;3.13;;;2.70;;
11618;SDS011;5865;48.776;9.280;2022-07-17T00:36:24;3.87;;;2.50;;
11618;SDS011;5865;48.776;9.280;2022-07-17T00:38:52;4.03;;;2.50;;
11618;SDS011;5865;48.776;9.280;2022-07-17T00:41:19;3.73;;;2.63;;
11618;SDS011;5865;48.776;9.280;2022-07-17T00:43:46;3.10;;;2.30;;
11618;SDS011;5865;48.776;9.280;2022-07-17T00:46:13;3.00;;;2.70;;
11618;SDS011;5865;48.776;9.280;2022-07-17T00:48:40;3.63;;;2.60;;
11618;SDS011;5865;48.776;9.280;2022-07-17T00:51:07;2.87;;;2.57;;
11618;SDS011;5865;48.776;9.280;2022-07-17T00:53:35;3.10;;;2.67;;
11618;SDS011;5865;48.776;9.280;2022-07-17T00:56:05;2.50;;;2.17;;
11618;SDS011;5865;48.776;9.280;2022-07-17T00:58:33;2.47;;;2.27;;
11618;SDS011;5865;48.776;9.280;2022-07-17T01:01:03;2.57;;;2.30;;
11618;SDS011;5865;48.776;9.280;2022-07-17T01:03:32;2.57;;;2.37;;
11618;SDS011;5865;48.776;9.280;2022-07-17T01:05:59;3.00;;;2.57;;
11618;SDS011;5865;48.776;9.280;2022-07-17T01:08:26;3.77;;;2.70;;
11618;SDS011;5865;48.776;9.280;2022-07-17T01:10:53;3.80;;;2.50;;
11618;SDS011;5865;48.776;9.280;2022-07-17T01:13:22;2.57;;;2.37;;
11618;SDS011;5865;48.776;9.280;2022-07-17T01:15:49;3.50;;;2.40;;
11618;SDS011;5865;48.776;9.280;2022-07-17T01:18:16;2.93;;;2.50;;
11618;SDS011;5865;48.776;9.280;2022-07-17T01:20:44;2.40;;;2.20;;
11618;SDS011;5865;48.776;9.280;2022-07-17T01:23:14;2.77;;;2.13;;
11618;SDS011;5865;48.776;9.280;2022-07-17T01:25:42;2.63;;;2.37;;
11618;SDS011;5865;48.776;9.280;2022-07-17T01:28:09;3.20;;;2.40;;
11618;SDS011;5865;48.776;9.280;2022-07-17T01:30:37;2.57;;;2.23;;
11618;SDS011;5865;48.776;9.280;2022-07-17T01:33:11;2.73;;;2.47;;
11618;SDS011;5865;48.776;9.280;2022-07-17T01:35:39;2.80;;;2.30;;
11618;SDS011;5865;48.776;9.280;2022-07-17T01:38:06;2.80;;;2.50;;
11618;SDS011;5865;48.776;9.280;2022-07-17T01:40:34;3.20;;;2.50;;
11618;SDS011;5865;48.776;9.280;2022-07-17T01:43:02;2.57;;;2.30;;
11618;SDS011;5865;48.776;9.280;2022-07-17T01:45:29;3.07;;;2.60;;
11618;SDS011;5865;48.776;9.280;2022-07-17T01:47:56;3.00;;;2.70;;
11618;SDS011;5865;48.776;9.280;2022-07-17T01:50:23;2.97;;;2.60;;
11618;SDS011;5865;48.776;9.280;2022-07-17T01:52:50;2.70;;;2.50;;
11618;SDS011;5865;48.776;9.280;2022-07-17T01:55:17;3.33;;;2.60;;
11618;SDS011;5865;48.776;9.280;2022-07-17T01:57:45;3.00;;;2.70;;
11618;SDS011;5865;48.776;9.280;2022-07-17T02:00:14;3.30;;;2.60;;
11618;SDS011;5865;48.776;9.280;2022-07-17T02:02:42;2.70;;;2.40;;
11618;SDS011;5865;48.776;9.280;2022-07-17T02:05:10;3.20;;;2.70;;
11618;SDS011;5865;48.776;9.280;2022-07-17T02:07:37;3.97;;;2.83;;
11618;SDS011;5865;48.776;9.280;2022-07-17T02:10:06;3.43;;;2.70;;
11618;SDS011;5865;48.776;9.280;2022-07-17T02:12:34;3.53;;;2.90;;
11618;SDS011;5865;48.776;9.280;2022-07-17T02:15:03;3.57;;;2.90;;
11618;SDS011;5865;48.776;9.280;2022-07-17T02:17:31;4.23;;;3.00;;
11618;SDS011;5865;48.776;9.280;2022-07-17T02:19:58;3.10;;;2.80;;
11618;SDS011;5865;48.776;9.280;2022-07-17T02:22:25;4.97;;;3.40;;
11618;SDS011;5865;48.776;9.280;2022-07-17T02:24:52;4.10;;;3.40;;
11618;SDS011;5865;48.776;9.280;2022-07-17T02:27:19;3.40;;;3.03;;
11618;SDS011;5865;48.776;9.280;2022-07-17T02:29:46;3.77;;;3.37;;
11618;SDS011;5865;48.776;9.280;2022-07-17T02:32:14;3.77;;;3.20;;
11618;SDS011;5865;48.776;9.280;2022-07-17T02:34:41;4.03;;;3.07;;
11618;SDS011;5865;48.776;9.280;2022-07-17T02:37:08;3.60;;;3.30;;
11618;SDS011;5865;48.776;9.280;2022-07-17T02:39:35;3.73;;;3.17;;
11618;SDS011;5865;48.776;9.280;2022-07-17T02:42:17;5.90;;;3.50;;
11618;SDS011;5865;48.776;9.280;2022-07-17T02:44:45;3.83;;;3.50;;
11618;SDS011;5865;48.776;9.280;2022-07-17T02:47:11;5.13;;;4.13;;
11618;SDS011;5865;48.776;9.280;2022-07-17T02:49:40;4.37;;;3.60;;
11618;SDS011;5865;48.776;9.280;2022-07-17T02:52:07;3.97;;;3.57;;
11618;SDS011;5865;48.776;9.280;2022-07-17T02:54:34;5.63;;;3.53;;
11618;SDS011;5865;48.776;9.280;2022-07-17T02:57:01;5.10;;;3.47;;
11618;SDS011;5865;48.776;9.280;2022-07-17T02:59:28;5.67;;;4.07;;
11618;SDS011;5865;48.776;9.280;2022-07-17T03:01:55;4.47;;;3.70;;
11618;SDS011;5865;48.776;9.280;2022-07-17T03:04:23;4.37;;;3.33;;
11618;SDS011;5865;48.776;9.280;2022-07-17T03:06:50;6.47;;;3.70;;
11618;SDS011;5865;48.776;9.280;2022-07-17T03:09:17;4.53;;;3.60;;
11618;SDS011;5865;48.776;9.280;2022-07-17T03:11:44;4.60;;;3.57;;
11618;SDS011;5865;48.776;9.280;2022-07-17T03:14:11;3.77;;;3.30;;
11618;SDS011;5865;48.776;9.280;2022-07-17T03:16:38;4.00;;;3.60;;
11618;SDS011;5865;48.776;9.280;2022-07-17T03:19:05;4.00;;;3.37;;
11618;SDS011;5865;48.776;9.280;2022-07-17T03:21:34;5.57;;;3.53;;
11618;SDS011;5865;48.776;9.280;2022-07-17T03:24:01;3.93;;;3.50;;
11618;SDS011;5865;48.776;9.280;2022-07-17T03:26:28;4.23;;;3.50;;
11618;SDS011;5865;48.776;9.280;2022-07-17T03:28:55;3.97;;;3.60;;
11618;SDS011;5865;48.776;9.280;2022-07-17T03:31:22;3.87;;;3.40;;
11618;SDS011;5865;48.776;9.280;2022-07-17T03:33:49;6.30;;;3.87;;
11618;SDS011;5865;48.776;9.280;2022-07-17T03:36:16;4.83;;;3.70;;
11618;SDS011;5865;48.776;9.280;2022-07-17T03:38:44;3.80;;;3.43;;
11618;SDS011;5865;48.776;9.280;2022-07-17T03:41:11;6.17;;;3.70;;
11618;SDS011;5865;48.776;9.280;2022-07-17T03:43:38;5.47;;;3.53;;
11618;SDS011;5865;48.776;9.280;2022-07-17T03:46:05;5.97;;;3.70;;
11618;SDS011;5865;48.776;9.280;2022-07-17T03:48:32;4.00;;;3.60;;
11618;SDS011;5865;48.776;9.280;2022-07-17T03:51:01;3.53;;;3.20;;
11618;SDS011;5865;48.776;9.280;2022-07-17T03:53:28;4.30;;;3.90;;
11618;SDS011;5865;48.776;9.280;2022-07-17T03:55:57;4.27;;;3.57;;
11618;SDS011;5865;48.776;9.280;2022-07-17T03:58:24;4.70;;;3.70;;
11618;SDS011;5865;48.776;9.280;2022-07-17T04:00:51;4.47;;;3.70;;
11618;SDS011;5865;48.776;9.280;2022-07-17T04:03:19;4.00;;;3.60;;
11618;SDS011;5865;48.776;9.280;2022-07-17T04:05:46;4.47;;;3.87;;
11618;SDS011;5865;48.776;9.280;2022-07-17T04:08:13;4.63;;;3.60;;
11618;SDS011;5865;48.776;9.280;2022-07-17T04:10:40;6.17;;;3.47;;
11618;SDS011;5865;48.776;9.280;2022-07-17T04:13:09;3.97;;;3.50;;
11618;SDS011;5865;48.776;9.280;2022-07-17T04:15:36;4.10;;;3.70;;
11618;SDS011;5865;48.776;9.280;2022-07-17T04:18:18;4.97;;;3.60;;
11618;SDS011;5865;48.776;9.280;2022-07-17T04:20:46;4.83;;;3.53;;
11618;SDS011;5865;48.776;9.280;2022-07-17T04:23:13;4.10;;;3.50;;
11618;SDS011;5865;48.776;9.280;2022-07-17T04:25:40;4.00;;;3.60;;
11618;SDS011;5865;48.776;9.280;2022-07-17T04:28:09;5.80;;;3.50;;
11618;SDS011;5865;48.776;9.280;2022-07-17T04:30:37;6.27;;;4.17;;
11618;SDS011;5865;48.776;9.280;2022-07-17T04:33:04;4.63;;;3.63;;
11618;SDS011;5865;48.776;9.280;2022-07-17T04:35:31;8.90;;;3.73;;
11618;SDS011;5865;48.776;9.280;2022-07-17T04:37:58;4.53;;;3.50;;
11618;SDS011;5865;48.776;9.280;2022-07-17T04:40:26;6.33;;;3.40;;
11618;SDS011;5865;48.776;9.280;2022-07-17T04:42:53;3.97;;;3.50;;
11618;SDS011;5865;48.776;9.280;2022-07-17T04:45:21;4.17;;;3.40;;
11618;SDS011;5865;48.776;9.280;2022-07-17T04:47:48;4.37;;;3.97;;
11618;SDS011;5865;48.776;9.280;2022-07-17T04:50:15;5.73;;;4.17;;
11618;SDS011;5865;48.776;9.280;2022-07-17T04:52:42;4.23;;;3.73;;
11618;SDS011;5865;48.776;9.280;2022-07-17T04:55:10;5.83;;;3.83;;
11618;SDS011;5865;48.776;9.280;2022-07-17T04:57:37;4.53;;;3.77;;
11618;SDS011;5865;48.776;9.280;2022-07-17T05:00:04;5.57;;;3.97;;
11618;SDS011;5865;48.776;9.280;2022-07-17T05:02:34;3.80;;;3.50;;
11618;SDS011;5865;48.776;9.280;2022-07-17T05:05:02;3.87;;;3.43;;
11618;SDS011;5865;48.776;9.280;2022-07-17T05:07:29;4.10;;;3.70;;
11618;SDS011;5865;48.776;9.280;2022-07-17T05:09:56;4.70;;;3.60;;
11618;SDS011;5865;48.776;9.280;2022-07-17T05:12:23;4.50;;;3.50;;
11618;SDS011;5865;48.776;9.280;2022-07-17T05:14:50;3.97;;;3.60;;
11618;SDS011;5865;48.776;9.280;2022-07-17T05:17:17;5.03;;;3.43;;
11618;SDS011;5865;48.776;9.280;2022-07-17T05:19:46;3.53;;;3.17;;
11618;SDS011;5865;48.776;9.280;2022-07-17T05:22:13;4.90;;;3.33;;
11618;SDS011;5865;48.776;9.280;2022-07-17T05:24:40;5.60;;;3.60;;
11618;SDS011;5865;48.776;9.280;2022-07-17T05:27:07;5.33;;;3.33;;
11618;SDS011;5865;48.776;9.280;2022-07-17T05:29:34;4.87;;;2.87;;
11618;SDS011;5865;48.776;9.280;2022-07-17T05:32:01;4.63;;;3.20;;
11618;SDS011;5865;48.776;9.280;2022-07-17T05:34:29;4.87;;;3.00;;
11618;SDS011;5865;48.776;9.280;2022-07-17T05:36:57;4.70;;;3.40;;
11618;SDS011;5865;48.776;9.280;2022-07-17T05:39:24;4.47;;;3.03;;
11618;SDS011;5865;48.776;9.280;2022-07-17T05:41:51;5.30;;;3.57;;
11618;SDS011;5865;48.776;9.280;2022-07-17T05:44:18;4.93;;;3.55;;
11618;SDS011;5865;48.776;9.280;2022-07-17T05:46:45;4.78;;;3.30;;
11618;SDS011;5865;48.776;9.280;2022-07-17T05:49:13;4.50;;;3.40;;
11618;SDS011;5865;48.776;9.280;2022-07-17T05:51:40;6.93;;;3.78;;
11618;SDS011;5865;48.776;9.280;2022-07-17T05:54:08;5.35;;;3.50;;
11618;SDS011;5865;48.776;9.280;2022-07-17T05:56:35;4.88;;;3.80;;
11618;SDS011;5865;48.776;9.280;2022-07-17T05:59:02;4.35;;;3.47;;
11618;SDS011;5865;48.776;9.280;2022-07-17T06:01:30;5.07;;;3.45;;
11618;SDS011;5865;48.776;9.280;2022-07-17T06:03:57;4.13;;;3.47;;
11618;SDS011;5865;48.776;9.280;2022-07-17T06:06:24;4.88;;;3.50;;
11618;SDS011;5865;48.776;9.280;2022-07-17T06:08:51;7.10;;;3.75;;
11618;SDS011;5865;48.776;9.280;2022-07-17T06:11:19;4.53;;;3.10;;
11618;SDS011;5865;48.776;9.280;2022-07-17T06:13:46;3.78;;;3.38;;
11618;SDS011;5865;48.776;9.280;2022-07-17T06:16:13;5.28;;;3.55;;
11618;SDS011;5865;48.776;9.280;2022-07-17T06:18:40;4.05;;;3.17;;
11618;SDS011;5865;48.776;9.280;2022-07-17T06:21:07;4.43;;;3.28;;
11618;SDS011;5865;48.776;9.280;2022-07-17T06:23:34;4.85;;;3.35;;
11618;SDS011;5865;48.776;9.280;2022-07-17T06:26:01;3.95;;;3.20;;
11618;SDS011;5865;48.776;9.280;2022-07-17T06:28:29;5.50;;;3.22;;
11618;SDS011;5865;48.776;9.280;2022-07-17T06:30:57;4.85;;;3.75;;
11618;SDS011;5865;48.776;9.280;2022-07-17T06:33:24;4.72;;;3.10;;
11618;SDS011;5865;48.776;9.280;2022-07-17T06:35:51;5.38;;;3.55;;
11618;SDS011;5865;48.776;9.280;2022-07-17T06:38:18;3.83;;;3.53;;
11618;SDS011;5865;48.776;9.280;2022-07-17T06:40:45;5.07;;;3.42;;
11618;SDS011;5865;48.776;9.280;2022-07-17T06:43:12;3.60;;;3.30;;
11618;SDS011;5865;48.776;9.280;2022-07-17T06:45:40;4.00;;;3.60;;
11618;SDS011;5865;48.776;9.280;2022-07-17T06:48:07;3.63;;;3.17;;
11618;SDS011;5865;48.776;9.280;2022-07-17T06:50:34;4.35;;;3.58;;
11618;SDS011;5865;48.776;9.280;2022-07-17T06:53:01;4.40;;;3.70;;
11618;SDS011;5865;48.776;9.280;2022-07-17T06:55:28;3.70;;;3.40;;
11618;SDS011;5865;48.776;9.280;2022-07-17T06:57:55;6.82;;;3.25;;
11618;SDS011;5865;48.776;9.280;2022-07-17T07:00:22;3.47;;;2.85;;
11618;SDS011;5865;48.776;9.280;2022-07-17T07:13:33;2.97;;;2.60;;
11618;SDS011;5865;48.776;9.280;2022-07-17T07:16:00;4.07;;;2.28;;
11618;SDS011;5865;48.776;9.280;2022-07-17T07:18:27;2.72;;;2.38;;
11618;SDS011;5865;48.776;9.280;2022-07-17T07:20:54;2.42;;;2.22;;
11618;SDS011;5865;48.776;9.280;2022-07-17T07:23:21;4.40;;;2.60;;
11618;SDS011;5865;48.776;9.280;2022-07-17T07:25:49;2.70;;;2.47;;
11618;SDS011;5865;48.776;9.280;2022-07-17T07:28:16;2.75;;;2.15;;
11618;SDS011;5865;48.776;9.280;2022-07-17T07:30:45;3.25;;;2.40;;
11618;SDS011;5865;48.776;9.280;2022-07-17T07:33:12;4.22;;;2.22;;
11618;SDS011;5865;48.776;9.280;2022-07-17T07:35:39;2.00;;;1.90;;
11618;SDS011;5865;48.776;9.280;2022-07-17T07:38:06;3.20;;;2.20;;
11618;SDS011;5865;48.776;9.280;2022-07-17T07:40:33;2.85;;;2.08;;
11618;SDS011;5865;48.776;9.280;2022-07-17T07:43:00;2.58;;;2.25;;
11618;SDS011;5865;48.776;9.280;2022-07-17T07:45:27;3.45;;;2.00;;
11618;SDS011;5865;48.776;9.280;2022-07-17T07:47:57;3.08;;;1.80;;
11618;SDS011;5865;48.776;9.280;2022-07-17T07:50:25;2.63;;;1.98;;
11618;SDS011;5865;48.776;9.280;2022-07-17T07:52:53;2.95;;;1.80;;
11618;SDS011;5865;48.776;9.280;2022-07-17T07:55:20;4.18;;;1.90;;
11618;SDS011;5865;48.776;9.280;2022-07-17T07:57:48;2.97;;;1.80;;
11618;SDS011;5865;48.776;9.280;2022-07-17T08:00:15;2.38;;;1.80;;
11618;SDS011;5865;48.776;9.280;2022-07-17T08:02:43;1.70;;;1.60;;
11618;SDS011;5865;48.776;9.280;2022-07-17T08:05:11;2.17;;;1.83;;
11618;SDS011;5865;48.776;9.280;2022-07-17T08:07:38;1.85;;;1.70;;
11618;SDS011;5865;48.776;9.280;2022-07-17T08:10:06;2.75;;;1.70;;
11618;SDS011;5865;48.776;9.280;2022-07-17T08:12:33;3.25;;;1.65;;
11618;SDS011;5865;48.776;9.280;2022-07-17T08:15:00;3.13;;;1.80;;
11618;SDS011;5865;48.776;9.280;2022-07-17T08:17:28;2.58;;;2.03;;
11618;SDS011;5865;48.776;9.280;2022-07-17T08:19:55;1.80;;;1.70;;
11618;SDS011;5865;48.776;9.280;2022-07-17T08:22:23;2.00;;;1.80;;
11618;SDS011;5865;48.776;9.280;2022-07-17T08:24:51;2.33;;;2.00;;
11618;SDS011;5865;48.776;9.280;2022-07-17T08:27:18;2.25;;;1.90;;
11618;SDS011;5865;48.776;9.280;2022-07-17T08:29:46;1.70;;;1.60;;
11618;SDS011;5865;48.776;9.280;2022-07-17T08:32:13;1.90;;;1.70;;
11618;SDS011;5865;48.776;9.280;2022-07-17T08:34:40;1.83;;;1.65;;
11618;SDS011;5865;48.776;9.280;2022-07-17T08:37:07;2.75;;;1.60;;
11618;SDS011;5865;48.776;9.280;2022-07-17T08:39:36;1.65;;;1.55;;
11618;SDS011;5865;48.776;9.280;2022-07-17T08:42:03;2.83;;;1.65;;
11618;SDS011;5865;48.776;9.280;2022-07-17T08:44:32;2.70;;;1.70;;
11618;SDS011;5865;48.776;9.280;2022-07-17T08:47:00;3.33;;;1.77;;
11618;SDS011;5865;48.776;9.280;2022-07-17T08:49:28;2.95;;;1.92;;
11618;SDS011;5865;48.776;9.280;2022-07-17T08:51:55;1.98;;;1.75;;
11618;SDS011;5865;48.776;9.280;2022-07-17T08:54:22;3.33;;;1.85;;
11618;SDS011;5865;48.776;9.280;2022-07-17T08:56:51;2.85;;;1.75;;
11618;SDS011;5865;48.776;9.280;2022-07-17T08:59:18;2.58;;;1.60;;
11618;SDS011;5865;48.776;9.280;2022-07-17T09:01:46;1.83;;;1.60;;
11618;SDS011;5865;48.776;9.280;2022-07-17T09:04:13;1.95;;;1.85;;
11618;SDS011;5865;48.776;9.280;2022-07-17T09:09:15;2.08;;;1.60;;
11618;SDS011;5865;48.776;9.280;2022-07-17T09:11:44;3.20;;;1.40;;
11618;SDS011;5865;48.776;9.280;2022-07-17T09:14:14;1.88;;;1.70;;
11618;SDS011;5865;48.776;9.280;2022-07-17T09:16:49;4.03;;;1.70;;
11618;SDS011;5865;48.776;9.280;2022-07-17T09:19:23;2.08;;;1.75;;
11618;SDS011;5865;48.776;9.280;2022-07-17T09:22:02;2.05;;;1.52;;
11618;SDS011;5865;48.776;9.280;2022-07-17T09:24:43;2.75;;;1.65;;
11618;SDS011;5865;48.776;9.280;2022-07-17T09:27:13;2.03;;;1.73;;
11618;SDS011;5865;48.776;9.280;2022-07-17T09:29:52;3.88;;;1.65;;
11618;SDS011;5865;48.776;9.280;2022-07-17T09:32:20;1.60;;;1.50;;
11618;SDS011;5865;48.776;9.280;2022-07-17T09:34:49;1.80;;;1.63;;
11618;SDS011;5865;48.776;9.280;2022-07-17T09:37:17;1.80;;;1.50;;
11618;SDS011;5865;48.776;9.280;2022-07-17T09:39:44;1.65;;;1.55;;
11618;SDS011;5865;48.776;9.280;2022-07-17T09:42:20;1.48;;;1.38;;
11618;SDS011;5865;48.776;9.280;2022-07-17T09:44:55;1.50;;;1.35;;
11618;SDS011;5865;48.776;9.280;2022-07-17T09:47:27;1.40;;;1.30;;
11618;SDS011;5865;48.776;9.280;2022-07-17T09:49:56;2.08;;;1.40;;
11618;SDS011;5865;48.776;9.280;2022-07-17T09:52:25;2.22;;;1.50;;
11618;SDS011;5865;48.776;9.280;2022-07-17T09:54:55;1.55;;;1.40;;
11618;SDS011;5865;48.776;9.280;2022-07-17T09:57:23;1.40;;;1.30;;
11618;SDS011;5865;48.776;9.280;2022-07-17T09:59:53;3.10;;;1.45;;
11618;SDS011;5865;48.776;9.280;2022-07-17T10:02:24;1.60;;;1.38;;
11618;SDS011;5865;48.776;9.280;2022-07-17T10:04:51;3.22;;;1.52;;
11618;SDS011;5865;48.776;9.280;2022-07-17T10:07:18;2.17;;;1.40;;
11618;SDS011;5865;48.776;9.280;2022-07-17T10:09:46;3.55;;;1.50;;
11618;SDS011;5865;48.776;9.280;2022-07-17T10:12:14;1.80;;;1.50;;
11618;SDS011;5865;48.776;9.280;2022-07-17T10:14:42;1.60;;;1.50;;
11618;SDS011;5865;48.776;9.280;2022-07-17T10:17:19;2.45;;;1.40;;
11618;SDS011;5865;48.776;9.280;2022-07-17T10:19:47;2.20;;;1.10;;
11618;SDS011;5865;48.776;9.280;2022-07-17T10:22:16;1.20;;;1.10;;
11618;SDS011;5865;48.776;9.280;2022-07-17T10:24:46;1.80;;;1.30;;
11618;SDS011;5865;48.776;9.280;2022-07-17T10:27:18;1.70;;;1.40;;
11618;SDS011;5865;48.776;9.280;2022-07-17T10:29:47;1.58;;;1.45;;
11618;SDS011;5865;48.776;9.280;2022-07-17T10:32:26;2.25;;;1.30;;
11618;SDS011;5865;48.776;9.280;2022-07-17T10:34:58;1.58;;;1.30;;
11618;SDS011;5865;48.776;9.280;2022-07-17T10:37:26;1.77;;;1.33;;
11618;SDS011;5865;48.776;9.280;2022-07-17T10:39:58;1.65;;;1.20;;
11618;SDS011;5865;48.776;9.280;2022-07-17T10:42:37;1.50;;;1.40;;
11618;SDS011;5865;48.776;9.280;2022-07-17T10:45:18;1.38;;;1.27;;
11618;SDS011;5865;48.776;9.280;2022-07-17T10:47:48;1.52;;;1.40;;
11618;SDS011;5865;48.776;9.280;2022-07-17T10:50:17;2.40;;;1.30;;
11618;SDS011;5865;48.776;9.280;2022-07-17T10:52:55;2.10;;;1.40;;
11618;SDS011;5865;48.776;9.280;2022-07-17T10:55:26;1.30;;;1.20;;
11618;SDS011;5865;48.776;9.280;2022-07-17T10:57:54;1.50;;;1.40;;
11618;SDS011;5865;48.776;9.280;2022-07-17T11:00:22;3.92;;;1.45;;
11618;SDS011;5865;48.776;9.280;2022-07-17T11:02:51;1.55;;;1.45;;
11618;SDS011;5865;48.776;9.280;2022-07-17T11:05:18;1.60;;;1.50;;
11618;SDS011;5865;48.776;9.280;2022-07-17T11:07:53;1.80;;;1.50;;
11618;SDS011;5865;48.776;9.280;2022-07-17T11:10:24;1.83;;;1.38;;
11618;SDS011;5865;48.776;9.280;2022-07-17T11:12:53;1.98;;;1.50;;
11618;SDS011;5865;48.776;9.280;2022-07-17T11:15:21;1.50;;;1.40;;
11618;SDS011;5865;48.776;9.280;2022-07-17T11:17:48;2.80;;;1.70;;
11618;SDS011;5865;48.776;9.280;2022-07-17T11:20:17;1.80;;;1.45;;
11618;SDS011;5865;48.776;9.280;2022-07-17T11:22:44;2.35;;;1.42;;
11618;SDS011;5865;48.776;9.280;2022-07-17T11:25:12;2.08;;;1.40;;
11618;SDS011;5865;48.776;9.280;2022-07-17T11:27:39;1.75;;;1.60;;
11618;SDS011;5865;48.776;9.280;2022-07-17T11:30:10;2.53;;;1.50;;
11618;SDS011;5865;48.776;9.280;2022-07-17T11:32:41;1.70;;;1.60;;
11618;SDS011;5865;48.776;9.280;2022-07-17T11:35:18;1.63;;;1.45;;
11618;SDS011;5865;48.776;9.280;2022-07-17T11:37:48;1.75;;;1.52;;
11618;SDS011;5865;48.776;9.280;2022-07-17T11:40:18;1.63;;;1.40;;
11618;SDS011;5865;48.776;9.280;2022-07-17T11:42:48;3.35;;;1.50;;
11618;SDS011;5865;48.776;9.280;2022-07-17T11:45:30;1.58;;;1.48;;
11618;SDS011;5865;48.776;9.280;2022-07-17T11:48:02;2.17;;;1.30;;
11618;SDS011;5865;48.776;9.280;2022-07-17T11:50:31;1.70;;;1.20;;
11618;SDS011;5865;48.776;9.280;2022-07-17T11:53:00;1.50;;;1.33;;
11618;SDS011;5865;48.776;9.280;2022-07-17T11:55:34;3.70;;;1.63;;
11618;SDS011;5865;48.776;9.280;2022-07-17T11:58:03;2.05;;;1.60;;
11618;SDS011;5865;48.776;9.280;2022-07-17T12:00:30;1.42;;;1.33;;
11618;SDS011;5865;48.776;9.280;2022-07-17T12:02:58;1.98;;;1.40;;
11618;SDS011;5865;48.776;9.280;2022-07-17T12:05:26;1.58;;;1.40;;
11618;SDS011;5865;48.776;9.280;2022-07-17T12:07:55;2.28;;;1.55;;
11618;SDS011;5865;48.776;9.280;2022-07-17T12:10:24;1.58;;;1.48;;
11618;SDS011;5865;48.776;9.280;2022-07-17T12:12:54;3.60;;;1.45;;
11618;SDS011;5865;48.776;9.280;2022-07-17T12:15:33;1.50;;;1.40;;
11618;SDS011;5865;48.776;9.280;2022-07-17T12:18:03;1.45;;;1.30;;
11618;SDS011;5865;48.776;9.280;2022-07-17T12:20:40;2.10;;;1.30;;
11618;SDS011;5865;48.776;9.280;2022-07-17T12:23:10;1.75;;;1.40;;
11618;SDS011;5865;48.776;9.280;2022-07-17T12:26:02;1.98;;;1.20;;
11618;SDS011;5865;48.776;9.280;2022-07-17T12:28:30;1.40;;;1.30;;
11618;SDS011;5865;48.776;9.280;2022-07-17T12:30:57;1.80;;;1.30;;
11618;SDS011;5865;48.776;9.280;2022-07-17T12:33:24;1.90;;;1.30;;
11618;SDS011;5865;48.776;9.280;2022-07-17T12:35:51;1.75;;;1.65;;
11618;SDS011;5865;48.776;9.280;2022-07-17T12:38:19;1.75;;;1.50;;
11618;SDS011;5865;48.776;9.280;2022-07-17T12:40:47;1.60;;;1.35;;
11618;SDS011;5865;48.776;9.280;2022-07-17T12:43:14;3.05;;;1.40;;
11618;SDS011;5865;48.776;9.280;2022-07-17T12:45:41;1.73;;;1.40;;
11618;SDS011;5865;48.776;9.280;2022-07-17T12:48:08;1.75;;;1.35;;
11618;SDS011;5865;48.776;9.280;2022-07-17T12:50:35;1.45;;;1.35;;
11618;SDS011;5865;48.776;9.280;2022-07-17T12:53:02;1.67;;;1.40;;
11618;SDS011;5865;48.776;9.280;2022-07-17T12:55:30;3.17;;;1.40;;
11618;SDS011;5865;48.776;9.280;2022-07-17T12:57:57;1.65;;;1.40;;
11618;SDS011;5865;48.776;9.280;2022-07-17T13:00:24;3.28;;;1.30;;
11618;SDS011;5865;48.776;9.280;2022-07-17T13:02:51;1.45;;;1.35;;
11618;SDS011;5865;48.776;9.280;2022-07-17T13:05:18;2.85;;;1.20;;
11618;SDS011;5865;48.776;9.280;2022-07-17T13:07:45;1.30;;;1.20;;
11618;SDS011;5865;48.776;9.280;2022-07-17T13:10:13;2.28;;;1.40;;
11618;SDS011;5865;48.776;9.280;2022-07-17T13:12:41;4.55;;;1.30;;
11618;SDS011;5865;48.776;9.280;2022-07-17T13:15:09;2.47;;;1.60;;
11618;SDS011;5865;48.776;9.280;2022-07-17T13:17:36;1.50;;;1.40;;
11618;SDS011;5865;48.776;9.280;2022-07-17T13:20:04;1.40;;;1.30;;
11618;SDS011;5865;48.776;9.280;2022-07-17T13:22:32;2.50;;;1.50;;
11618;SDS011;5865;48.776;9.280;2022-07-17T13:24:59;1.98;;;1.50;;
11618;SDS011;5865;48.776;9.280;2022-07-17T13:27:26;1.92;;;1.60;;
11618;SDS011;5865;48.776;9.280;2022-07-17T13:29:54;1.65;;;1.50;;
11618;SDS011;5865;48.776;9.280;2022-07-17T13:32:21;2.63;;;1.40;;
11618;SDS011;5865;48.776;9.280;2022-07-17T13:34:48;1.52;;;1.40;;
11618;SDS011;5865;48.776;9.280;2022-07-17T13:37:15;1.90;;;1.73;;
11618;SDS011;5865;48.776;9.280;2022-07-17T13:39:42;1.90;;;1.60;;
11618;SDS011;5865;48.776;9.280;2022-07-17T13:42:09;1.50;;;1.40;;
11618;SDS011;5865;48.776;9.280;2022-07-17T13:44:36;3.33;;;1.40;;
11618;SDS011;5865;48.776;9.280;2022-07-17T13:47:05;1.65;;;1.30;;
11618;SDS011;5865;48.776;9.280;2022-07-17T13:49:32;1.67;;;1.30;;
11618;SDS011;5865;48.776;9.280;2022-07-17T13:51:59;2.35;;;1.50;;
11618;SDS011;5865;48.776;9.280;2022-07-17T13:54:26;1.95;;;1.30;;
11618;SDS011;5865;48.776;9.280;2022-07-17T13:56:53;1.40;;;1.30;;
11618;SDS011;5865;48.776;9.280;2022-07-17T13:59:20;1.25;;;1.15;;
11618;SDS011;5865;48.776;9.280;2022-07-17T14:01:47;1.50;;;1.38;;
11618;SDS011;5865;48.776;9.280;2022-07-17T14:04:15;1.55;;;1.30;;
11618;SDS011;5865;48.776;9.280;2022-07-17T14:06:42;1.52;;;1.30;;
11618;SDS011;5865;48.776;9.280;2022-07-17T14:09:09;1.60;;;1.50;;
11618;SDS011;5865;48.776;9.280;2022-07-17T14:11:36;1.40;;;1.27;;
11618;SDS011;5865;48.776;9.280;2022-07-17T14:14:04;1.83;;;1.30;;
11618;SDS011;5865;48.776;9.280;2022-07-17T14:16:31;1.83;;;1.40;;
11618;SDS011;5865;48.776;9.280;2022-07-17T14:18:58;2.55;;;1.35;;
11618;SDS011;5865;48.776;9.280;2022-07-17T14:21:27;1.70;;;1.20;;
11618;SDS011;5865;48.776;9.280;2022-07-17T14:23:56;1.35;;;1.23;;
11618;SDS011;5865;48.776;9.280;2022-07-17T14:26:24;1.30;;;1.20;;
11618;SDS011;5865;48.776;9.280;2022-07-17T14:28:51;1.40;;;1.30;;
11618;SDS011;5865;48.776;9.280;2022-07-17T14:31:18;2.10;;;1.58;;
11618;SDS011;5865;48.776;9.280;2022-07-17T14:33:45;2.30;;;1.30;;
11618;SDS011;5865;48.776;9.280;2022-07-17T14:36:12;2.08;;;1.40;;
11618;SDS011;5865;48.776;9.280;2022-07-17T14:38:41;1.52;;;1.42;;
11618;SDS011;5865;48.776;9.280;2022-07-17T14:41:08;1.77;;;1.20;;
11618;SDS011;5865;48.776;9.280;2022-07-17T14:43:36;1.30;;;1.20;;
11618;SDS011;5865;48.776;9.280;2022-07-17T14:46:03;1.23;;;1.13;;
11618;SDS011;5865;48.776;9.280;2022-07-17T14:48:30;1.38;;;1.25;;
11618;SDS011;5865;48.776;9.280;2022-07-17T14:50:57;3.85;;;1.50;;
11618;SDS011;5865;48.776;9.280;2022-07-17T14:53:24;1.23;;;1.13;;
11618;SDS011;5865;48.776;9.280;2022-07-17T14:55:53;1.30;;;1.13;;
11618;SDS011;5865;48.776;9.280;2022-07-17T14:58:20;1.38;;;1.20;;
11618;SDS011;5865;48.776;9.280;2022-07-17T15:00:47;1.58;;;1.30;;
11618;SDS011;5865;48.776;9.280;2022-07-17T15:03:14;1.45;;;1.35;;
11618;SDS011;5865;48.776;9.280;2022-07-17T15:05:41;1.30;;;1.20;;
11618;SDS011;5865;48.776;9.280;2022-07-17T15:08:08;2.00;;;1.20;;
11618;SDS011;5865;48.776;9.280;2022-07-17T15:10:35;1.40;;;1.30;;
11618;SDS011;5865;48.776;9.280;2022-07-17T15:13:03;1.30;;;1.20;;
11618;SDS011;5865;48.776;9.280;2022-07-17T15:15:30;1.60;;;1.30;;
11618;SDS011;5865;48.776;9.280;2022-07-17T15:17:58;1.40;;;1.30;;
11618;SDS011;5865;48.776;9.280;2022-07-17T15:20:25;1.75;;;1.65;;